Time;durP1;ratioP1;P1;durP2;ratioP2;P2;SDS_P1;SDS_P2;PMS_P1;PMS_P2;Temp;Humidity;BMP_temperature;BMP_pressure;BME280_temperature;BME280_humidity;BME280_pressure;Samples;Min_cycle;Max_cycle;Signal;HPM_P1;HPM_P2
2021/05/24 00:01:07;;;;;;;3.28;1.33;;;;;;;;;;4419908;32;20217;-71
2021/05/24 00:03:32;;;;;;;2.78;1.00;;;;;;;;;;4437820;32;20450;-71
2021/05/24 00:05:57;;;;;;;1.87;1.08;;;;;;;;;;4439606;32;20225;-71
2021/05/24 00:08:22;;;;;;;2.37;1.23;;;;;;;;;;4439403;32;20538;-71
2021/05/24 00:10:48;;;;;;;1.75;1.27;;;;;;;;;;4438494;32;20134;-71
2021/05/24 00:13:14;;;;;;;2.83;1.40;;;;;;;;;;4437071;32;20638;-72
2021/05/24 00:15:41;;;;;;;3.35;1.30;;;;;;;;;;4438690;32;20133;-71
2021/05/24 00:18:06;;;;;;;3.15;1.42;;;;;;;;;;4434977;32;20173;-72
2021/05/24 00:20:35;;;;;;;2.08;1.05;;;;;;;;;;4435752;32;20313;-70
2021/05/24 00:23:01;;;;;;;2.70;1.52;;;;;;;;;;4435230;32;20133;-71
2021/05/24 00:25:28;;;;;;;2.15;1.23;;;;;;;;;;4434788;32;20224;-71
2021/05/24 00:27:54;;;;;;;2.05;1.23;;;;;;;;;;4434815;32;20157;-71
2021/05/24 00:30:19;;;;;;;5.72;1.30;;;;;;;;;;4434829;32;20156;-71
2021/05/24 00:32:45;;;;;;;3.90;1.30;;;;;;;;;;4434195;32;20465;-72
2021/05/24 00:35:10;;;;;;;2.87;1.17;;;;;;;;;;4435717;32;20138;-72
2021/05/24 00:37:35;;;;;;;2.80;1.58;;;;;;;;;;4435526;32;20141;-72
2021/05/24 00:40:01;;;;;;;2.22;1.27;;;;;;;;;;4436261;32;20130;-72
2021/05/24 00:42:26;;;;;;;3.30;1.30;;;;;;;;;;4421655;32;20233;-72
2021/05/24 00:44:51;;;;;;;1.80;1.37;;;;;;;;;;4421562;32;20249;-72
2021/05/24 00:47:16;;;;;;;4.68;1.30;;;;;;;;;;4437699;32;20137;-72
2021/05/24 00:49:44;;;;;;;2.72;1.50;;;;;;;;;;4437021;32;20179;-72
2021/05/24 00:52:13;;;;;;;3.37;1.48;;;;;;;;;;4421675;32;20221;-71
2021/05/24 00:54:39;;;;;;;2.60;1.40;;;;;;;;;;4437193;32;20265;-72
2021/05/24 00:57:04;;;;;;;2.03;1.20;;;;;;;;;;4437032;32;20168;-71
2021/05/24 00:59:30;;;;;;;2.83;1.40;;;;;;;;;;4435069;32;20641;-72
2021/05/24 01:01:55;;;;;;;3.17;1.30;;;;;;;;;;4434424;32;20511;-71
2021/05/24 01:04:20;;;;;;;4.28;1.20;;;;;;;;;;4436371;32;20567;-70
2021/05/24 01:06:46;;;;;;;3.62;1.35;;;;;;;;;;4434762;32;20137;-72
2021/05/24 01:09:12;;;;;;;3.30;1.23;;;;;;;;;;4434967;32;20137;-71
2021/05/24 01:11:37;;;;;;;4.20;1.58;;;;;;;;;;4434766;32;20466;-71
2021/05/24 01:14:03;;;;;;;3.37;1.50;;;;;;;;;;4433782;32;20581;-72
2021/05/24 01:16:28;;;;;;;2.72;1.20;;;;;;;;;;4436198;32;20133;-72
2021/05/24 01:18:53;;;;;;;1.73;1.30;;;;;;;;;;4436392;32;20134;-72
2021/05/24 01:21:19;;;;;;;2.62;1.30;;;;;;;;;;4434874;32;20228;-71
2021/05/24 01:23:45;;;;;;;2.85;1.67;;;;;;;;;;4435198;32;20878;-72
2021/05/24 01:26:10;;;;;;;1.83;1.23;;;;;;;;;;4422401;32;20228;-72
2021/05/24 01:28:35;;;;;;;3.97;1.33;;;;;;;;;;4435322;32;20129;-72
2021/05/24 01:31:02;;;;;;;5.22;1.48;;;;;;;;;;4434496;32;20138;-72
2021/05/24 01:33:27;;;;;;;2.35;1.33;;;;;;;;;;4434842;32;20532;-72
2021/05/24 01:35:52;;;;;;;2.58;1.42;;;;;;;;;;4436500;32;20472;-71
2021/05/24 01:38:17;;;;;;;4.68;1.45;;;;;;;;;;4436100;32;20453;-71
2021/05/24 01:40:43;;;;;;;2.67;1.40;;;;;;;;;;4420459;32;20157;-71
2021/05/24 01:43:09;;;;;;;3.83;1.40;;;;;;;;;;4436516;32;20137;-72
2021/05/24 01:45:34;;;;;;;2.40;1.30;;;;;;;;;;4437113;32;20176;-72
2021/05/24 01:48:00;;;;;;;3.42;1.40;;;;;;;;;;4435370;32;20319;-72
2021/05/24 01:50:25;;;;;;;2.85;1.10;;;;;;;;;;4435028;32;20156;-72
2021/05/24 01:52:50;;;;;;;3.45;0.95;;;;;;;;;;4436374;32;20205;-71
2021/05/24 01:55:16;;;;;;;2.67;1.30;;;;;;;;;;4434868;32;20470;-72
2021/05/24 01:57:41;;;;;;;4.20;1.20;;;;;;;;;;4436018;32;20168;-72
2021/05/24 02:00:14;;;;;;;3.10;1.10;;;;;;;;;;4435287;32;20154;-72
2021/05/24 02:02:40;;;;;;;3.22;0.90;;;;;;;;;;4434687;32;20142;-71
2021/05/24 02:05:06;;;;;;;2.53;0.90;;;;;;;;;;4421209;32;20174;-72
2021/05/24 02:07:31;;;;;;;2.08;0.88;;;;;;;;;;4420958;32;20129;-71
2021/05/24 02:09:56;;;;;;;2.05;0.90;;;;;;;;;;4420544;32;20191;-72
2021/05/24 02:12:22;;;;;;;2.30;0.98;;;;;;;;;;4420281;32;20409;-71
2021/05/24 02:14:48;;;;;;;2.22;0.95;;;;;;;;;;4405077;32;20157;-72
2021/05/24 02:17:14;;;;;;;3.70;1.73;;;;;;;;;;4420403;32;20428;-70
2021/05/24 02:19:39;;;;;;;3.72;0.98;;;;;;;;;;4420467;32;20161;-70
2021/05/24 02:22:04;;;;;;;1.23;0.70;;;;;;;;;;4405299;32;20313;-69
2021/05/24 02:24:29;;;;;;;1.03;0.70;;;;;;;;;;4405449;32;20423;-70
2021/05/24 02:26:54;;;;;;;2.60;0.75;;;;;;;;;;4419222;32;20629;-70
2021/05/24 02:29:20;;;;;;;2.00;1.48;;;;;;;;;;4419093;32;20236;-70
2021/05/24 02:31:45;;;;;;;2.87;0.80;;;;;;;;;;4418877;32;20241;-70
2021/05/24 02:34:10;;;;;;;2.37;1.10;;;;;;;;;;4419449;32;20226;-71
2021/05/24 02:36:36;;;;;;;4.57;1.80;;;;;;;;;;4420064;32;20164;-70
2021/05/24 02:39:06;;;;;;;3.47;1.27;;;;;;;;;;4418990;32;20126;-71
2021/05/24 02:41:31;;;;;;;4.12;1.40;;;;;;;;;;4405198;32;20158;-70
2021/05/24 02:43:56;;;;;;;3.72;1.85;;;;;;;;;;4420581;32;20214;-69
2021/05/24 02:46:21;;;;;;;3.60;1.17;;;;;;;;;;4407263;32;20261;-69
2021/05/24 02:48:46;;;;;;;3.03;1.50;;;;;;;;;;4419655;32;20260;-69
2021/05/24 02:51:12;;;;;;;6.32;1.30;;;;;;;;;;4419696;32;20256;-69
2021/05/24 02:53:37;;;;;;;2.33;1.23;;;;;;;;;;4418419;32;20467;-69
2021/05/24 02:56:02;;;;;;;3.37;1.25;;;;;;;;;;4418517;32;20164;-69
2021/05/24 02:58:27;;;;;;;3.20;1.40;;;;;;;;;;4418168;32;20130;-68
2021/05/24 03:00:53;;;;;;;4.90;1.80;;;;;;;;;;4417202;32;20507;-68
2021/05/24 03:03:20;;;;;;;2.58;1.50;;;;;;;;;;4406130;32;20356;-68
2021/05/24 03:05:46;;;;;;;5.20;2.67;;;;;;;;;;4417740;32;20130;-68
2021/05/24 03:08:11;;;;;;;2.83;1.62;;;;;;;;;;4417387;32;20157;-68
2021/05/24 03:10:39;;;;;;;7.32;2.20;;;;;;;;;;4403479;32;20174;-68
2021/05/24 03:13:04;;;;;;;7.57;3.05;;;;;;;;;;4403208;32;20161;-68
2021/05/24 03:15:29;;;;;;;5.82;2.45;;;;;;;;;;4418331;32;20157;-68
2021/05/24 03:17:54;;;;;;;4.43;2.20;;;;;;;;;;4419648;32;20324;-69
2021/05/24 03:20:20;;;;;;;5.10;2.60;;;;;;;;;;4405027;32;20525;-68
2021/05/24 03:22:46;;;;;;;7.70;2.65;;;;;;;;;;4402894;32;20192;-69
2021/05/24 03:25:12;;;;;;;4.80;3.00;;;;;;;;;;4418920;32;20134;-69
2021/05/24 03:27:37;;;;;;;6.47;3.05;;;;;;;;;;4416844;32;20192;-68
2021/05/24 03:30:03;;;;;;;4.57;2.83;;;;;;;;;;4404740;32;20161;-68
2021/05/24 03:32:28;;;;;;;4.82;3.10;;;;;;;;;;4416886;32;20146;-69
2021/05/24 03:34:54;;;;;;;7.43;2.90;;;;;;;;;;4419412;32;20177;-69
2021/05/24 03:37:19;;;;;;;6.82;2.60;;;;;;;;;;4421210;32;20141;-69
2021/05/24 03:39:44;;;;;;;7.30;2.72;;;;;;;;;;4423006;32;20646;-69
2021/05/24 03:42:09;;;;;;;4.47;2.33;;;;;;;;;;4421256;32;20138;-69
2021/05/24 03:44:36;;;;;;;4.85;2.67;;;;;;;;;;4406499;32;20226;-69
2021/05/24 03:47:02;;;;;;;4.57;2.65;;;;;;;;;;4421007;32;20264;-68
2021/05/24 03:49:27;;;;;;;5.05;3.17;;;;;;;;;;4421508;32;20134;-69
2021/05/24 03:51:52;;;;;;;3.95;2.78;;;;;;;;;;4420821;32;20190;-69
2021/05/24 03:54:17;;;;;;;3.95;2.87;;;;;;;;;;4420688;32;20192;-70
2021/05/24 03:56:43;;;;;;;4.68;3.20;;;;;;;;;;4422471;32;20157;-69
2021/05/24 03:59:08;;;;;;;5.72;3.08;;;;;;;;;;4420998;32;20130;-70
2021/05/24 04:01:36;;;;;;;7.60;2.70;;;;;;;;;;4424433;32;20138;-69
2021/05/24 04:04:02;;;;;;;5.93;2.80;;;;;;;;;;4439303;32;20161;-70
2021/05/24 04:06:27;;;;;;;3.87;2.67;;;;;;;;;;4422280;32;20269;-70
2021/05/24 04:08:53;;;;;;;5.87;2.67;;;;;;;;;;4421482;32;20172;-70
2021/05/24 04:11:18;;;;;;;5.25;2.30;;;;;;;;;;4408047;32;20200;-70
2021/05/24 04:13:49;;;;;;;4.28;2.40;;;;;;;;;;4407397;32;20157;-70
2021/05/24 04:16:15;;;;;;;4.63;2.20;;;;;;;;;;4406655;32;20158;-70
2021/05/24 04:18:44;;;;;;;2.78;2.15;;;;;;;;;;4422316;32;20168;-70
2021/05/24 04:21:09;;;;;;;9.70;2.50;;;;;;;;;;4422528;32;20142;-70
2021/05/24 04:23:34;;;;;;;5.22;1.60;;;;;;;;;;4422392;32;20223;-70
2021/05/24 04:26:00;;;;;;;3.55;1.55;;;;;;;;;;4420831;32;20220;-70
2021/05/24 04:28:25;;;;;;;3.08;1.92;;;;;;;;;;4420809;32;20531;-70
2021/05/24 04:30:50;;;;;;;3.78;1.48;;;;;;;;;;4421757;32;20142;-69
2021/05/24 04:33:15;;;;;;;3.03;1.40;;;;;;;;;;4421594;32;20146;-70
2021/05/24 04:35:40;;;;;;;4.28;1.40;;;;;;;;;;4421915;32;20161;-70
2021/05/24 04:38:06;;;;;;;2.80;1.35;;;;;;;;;;4422264;32;20172;-69
2021/05/24 04:40:31;;;;;;;3.72;1.30;;;;;;;;;;4419895;32;20229;-68
2021/05/24 04:42:57;;;;;;;1.65;1.10;;;;;;;;;;4419927;32;20173;-69
2021/05/24 04:45:23;;;;;;;6.03;1.25;;;;;;;;;;4421689;32;20142;-70
2021/05/24 04:47:48;;;;;;;1.83;1.30;;;;;;;;;;4418982;32;20180;-70
2021/05/24 04:50:13;;;;;;;2.62;1.27;;;;;;;;;;4421935;32;20615;-70
2021/05/24 04:52:38;;;;;;;4.32;1.10;;;;;;;;;;4406664;32;20189;-69
2021/05/24 04:55:05;;;;;;;2.50;1.00;;;;;;;;;;4407980;32;20258;-70
2021/05/24 04:57:30;;;;;;;3.80;1.20;;;;;;;;;;4421929;32;20179;-69
2021/05/24 04:59:55;;;;;;;3.90;1.20;;;;;;;;;;4402615;32;20241;-70
2021/05/24 05:02:20;;;;;;;1.87;1.10;;;;;;;;;;4407374;32;20195;-70
2021/05/24 05:04:46;;;;;;;4.57;1.27;;;;;;;;;;4407432;32;20547;-69
2021/05/24 05:07:11;;;;;;;1.60;1.10;;;;;;;;;;4405394;32;20264;-70
2021/05/24 05:09:36;;;;;;;2.35;1.20;;;;;;;;;;4405181;32;20158;-69
2021/05/24 05:12:01;;;;;;;2.83;1.10;;;;;;;;;;4405458;32;20193;-68
2021/05/24 05:14:26;;;;;;;1.35;1.10;;;;;;;;;;4405084;32;20229;-68
2021/05/24 05:16:52;;;;;;;3.90;1.15;;;;;;;;;;4403672;32;20163;-69
2021/05/24 05:19:17;;;;;;;2.03;1.30;;;;;;;;;;4404553;32;20165;-70
2021/05/24 05:21:44;;;;;;;2.53;1.23;;;;;;;;;;4404216;32;20157;-69
2021/05/24 05:24:09;;;;;;;3.05;1.30;;;;;;;;;;4405462;32;20529;-69
2021/05/24 05:26:34;;;;;;;3.65;1.40;;;;;;;;;;4405809;32;20189;-70
2021/05/24 05:28:59;;;;;;;4.20;1.00;;;;;;;;;;4404565;32;20127;-69
2021/05/24 05:31:25;;;;;;;3.45;1.05;;;;;;;;;;4404638;32;20344;-68
2021/05/24 05:33:50;;;;;;;1.85;1.30;;;;;;;;;;4406600;32;20185;-68
2021/05/24 05:36:15;;;;;;;2.23;1.20;;;;;;;;;;4405162;32;20635;-68
2021/05/24 05:38:40;;;;;;;2.97;1.30;;;;;;;;;;4404612;32;20233;-69
2021/05/24 05:41:06;;;;;;;2.25;1.50;;;;;;;;;;4406434;32;20161;-69
2021/05/24 05:43:31;;;;;;;2.53;1.40;;;;;;;;;;4406161;32;20160;-69
2021/05/24 05:45:56;;;;;;;1.83;1.30;;;;;;;;;;4406656;32;20138;-70
2021/05/24 05:48:21;;;;;;;2.65;1.50;;;;;;;;;;4404835;32;20257;-69
2021/05/24 05:50:47;;;;;;;3.30;1.60;;;;;;;;;;4404232;32;20156;-70
2021/05/24 05:53:13;;;;;;;2.37;1.48;;;;;;;;;;4404705;32;20134;-69
2021/05/24 05:55:38;;;;;;;3.45;1.62;;;;;;;;;;4404364;32;20195;-69
2021/05/24 05:58:03;;;;;;;5.65;1.83;;;;;;;;;;4414203;32;20172;-69
2021/05/24 06:00:28;;;;;;;3.67;1.30;;;;;;;;;;4426250;32;20158;-69
2021/05/24 06:02:53;;;;;;;3.58;1.60;;;;;;;;;;4435152;32;20515;-69
2021/05/24 06:05:19;;;;;;;4.50;1.70;;;;;;;;;;4434962;32;20130;-69
2021/05/24 06:07:44;;;;;;;3.87;1.80;;;;;;;;;;4422270;32;20280;-70
2021/05/24 06:10:10;;;;;;;5.85;1.98;;;;;;;;;;4436312;32;20154;-69
2021/05/24 06:12:35;;;;;;;3.17;2.20;;;;;;;;;;4435791;32;20196;-69
2021/05/24 06:15:00;;;;;;;4.75;1.90;;;;;;;;;;4434406;32;20512;-70
2021/05/24 06:17:25;;;;;;;4.50;1.98;;;;;;;;;;4420475;32;20168;-70
2021/05/24 06:19:51;;;;;;;4.78;2.50;;;;;;;;;;4434744;32;20145;-69
2021/05/24 06:22:16;;;;;;;4.70;2.28;;;;;;;;;;4436591;32;20192;-69
2021/05/24 06:24:41;;;;;;;5.28;2.05;;;;;;;;;;4435185;32;20157;-70
2021/05/24 06:27:06;;;;;;;4.05;2.00;;;;;;;;;;4422081;32;20196;-69
2021/05/24 06:29:32;;;;;;;2.87;1.62;;;;;;;;;;4434729;32;20221;-70
2021/05/24 06:31:57;;;;;;;3.60;2.08;;;;;;;;;;4422034;32;20188;-70
2021/05/24 06:34:23;;;;;;;6.70;2.20;;;;;;;;;;4434558;32;20603;-70
2021/05/24 06:36:48;;;;;;;3.62;1.80;;;;;;;;;;4422217;32;20165;-70
2021/05/24 06:39:13;;;;;;;5.12;2.00;;;;;;;;;;4436172;32;20149;-69
2021/05/24 06:41:38;;;;;;;3.50;2.00;;;;;;;;;;4421668;32;20188;-69
2021/05/24 06:44:04;;;;;;;2.85;2.15;;;;;;;;;;4434511;32;20142;-68
2021/05/24 06:46:29;;;;;;;5.43;2.30;;;;;;;;;;4435363;32;20197;-70
2021/05/24 06:48:54;;;;;;;3.75;2.10;;;;;;;;;;4433932;32;20794;-69
2021/05/24 06:51:19;;;;;;;4.97;2.12;;;;;;;;;;4435651;32;20145;-68
2021/05/24 06:53:45;;;;;;;3.80;2.08;;;;;;;;;;4435887;32;20177;-69
2021/05/24 06:56:10;;;;;;;5.40;2.10;;;;;;;;;;4435844;32;20263;-68
2021/05/24 06:58:35;;;;;;;5.32;2.20;;;;;;;;;;4434189;32;20157;-69
2021/05/24 07:01:00;;;;;;;4.75;2.40;;;;;;;;;;4434597;32;20166;-69
2021/05/24 07:03:26;;;;;;;2.97;1.65;;;;;;;;;;4434319;32;20548;-69
2021/05/24 07:05:51;;;;;;;4.53;2.20;;;;;;;;;;4434123;32;20184;-69
2021/05/24 07:08:16;;;;;;;2.62;1.98;;;;;;;;;;4435983;32;20134;-71
2021/05/24 07:10:41;;;;;;;3.83;1.77;;;;;;;;;;4434225;32;20192;-69
2021/05/24 07:13:07;;;;;;;3.15;1.75;;;;;;;;;;4411115;32;20170;-70
2021/05/24 07:15:32;;;;;;;4.43;1.90;;;;;;;;;;4419034;32;20156;-69
2021/05/24 07:17:58;;;;;;;3.12;2.20;;;;;;;;;;4418569;32;20134;-69
2021/05/24 07:20:23;;;;;;;3.87;1.85;;;;;;;;;;4404960;32;20170;-69
2021/05/24 07:22:48;;;;;;;2.40;1.70;;;;;;;;;;4419122;32;20282;-67
2021/05/24 07:25:13;;;;;;;3.22;2.15;;;;;;;;;;4419585;32;20153;-68
2021/05/24 07:27:38;;;;;;;4.57;2.12;;;;;;;;;;4420435;32;20141;-69
2021/05/24 07:30:04;;;;;;;3.53;1.77;;;;;;;;;;4420428;32;20213;-70
2021/05/24 07:32:29;;;;;;;4.70;2.00;;;;;;;;;;4419056;32;20172;-69
2021/05/24 07:34:55;;;;;;;2.33;1.67;;;;;;;;;;4420336;32;20196;-69
2021/05/24 07:37:20;;;;;;;3.53;1.92;;;;;;;;;;4418090;32;20130;-69
2021/05/24 07:39:45;;;;;;;3.20;1.92;;;;;;;;;;4418538;32;20192;-69
2021/05/24 07:42:10;;;;;;;2.62;1.87;;;;;;;;;;4405819;32;20293;-69
2021/05/24 07:44:35;;;;;;;4.25;1.92;;;;;;;;;;4419832;32;20561;-69
2021/05/24 07:47:01;;;;;;;3.28;1.70;;;;;;;;;;4420524;32;20951;-68
2021/05/24 07:49:27;;;;;;;3.78;1.62;;;;;;;;;;4419880;32;20137;-69
2021/05/24 07:51:52;;;;;;;2.58;1.60;;;;;;;;;;4418571;32;20154;-69
2021/05/24 07:54:17;;;;;;;3.95;1.90;;;;;;;;;;4419540;32;20179;-69
2021/05/24 07:56:43;;;;;;;3.62;2.00;;;;;;;;;;4419293;32;20131;-69
2021/05/24 07:59:08;;;;;;;2.50;1.52;;;;;;;;;;4419647;32;20133;-69
2021/05/24 08:01:34;;;;;;;4.75;2.00;;;;;;;;;;4419692;32;20572;-71
2021/05/24 08:03:59;;;;;;;3.80;1.90;;;;;;;;;;4419825;32;20138;-69
2021/05/24 08:06:24;;;;;;;6.70;1.90;;;;;;;;;;4406077;32;20673;-68
2021/05/24 08:08:50;;;;;;;3.50;1.62;;;;;;;;;;4419626;32;20158;-69
2021/05/24 08:11:15;;;;;;;2.90;1.83;;;;;;;;;;4418974;32;20500;-70
2021/05/24 08:13:41;;;;;;;2.22;1.65;;;;;;;;;;4419850;32;20157;-69
2021/05/24 08:16:06;;;;;;;3.37;2.00;;;;;;;;;;4419198;32;20535;-72
2021/05/24 08:18:31;;;;;;;3.20;1.75;;;;;;;;;;4419911;32;20160;-69
2021/05/24 08:20:57;;;;;;;4.12;2.10;;;;;;;;;;4419460;32;20210;-70
2021/05/24 08:23:22;;;;;;;3.87;2.30;;;;;;;;;;4421011;32;20631;-68
2021/05/24 08:25:47;;;;;;;3.75;1.98;;;;;;;;;;4406382;32;20312;-69
2021/05/24 08:28:12;;;;;;;3.45;1.60;;;;;;;;;;4408068;32;20293;-69
2021/05/24 08:30:37;;;;;;;3.00;1.90;;;;;;;;;;4421334;32;20130;-70
2021/05/24 08:33:03;;;;;;;4.22;1.90;;;;;;;;;;4433783;32;20187;-70
2021/05/24 08:35:28;;;;;;;6.35;2.67;;;;;;;;;;4437585;32;20176;-69
2021/05/24 08:37:53;;;;;;;3.03;1.83;;;;;;;;;;4437808;32;20204;-68
2021/05/24 08:40:19;;;;;;;4.47;2.20;;;;;;;;;;4421294;32;20225;-69
2021/05/24 08:42:45;;;;;;;3.87;1.70;;;;;;;;;;4436318;32;20224;-70
2021/05/24 08:45:12;;;;;;;2.65;1.70;;;;;;;;;;4437299;32;20267;-69
2021/05/24 08:47:37;;;;;;;4.00;2.17;;;;;;;;;;4437182;32;20173;-69
2021/05/24 08:50:03;;;;;;;3.35;1.67;;;;;;;;;;4435321;32;20161;-69
2021/05/24 08:52:29;;;;;;;5.22;2.30;;;;;;;;;;4421269;32;20265;-69
2021/05/24 08:54:54;;;;;;;2.97;2.28;;;;;;;;;;4420378;32;20146;-69
2021/05/24 08:57:20;;;;;;;8.95;2.65;;;;;;;;;;4420374;32;20137;-69
2021/05/24 08:59:45;;;;;;;4.05;1.77;;;;;;;;;;4421727;32;20218;-70
2021/05/24 09:02:12;;;;;;;3.65;2.20;;;;;;;;;;4421509;32;20191;-69
2021/05/24 09:04:45;;;;;;;5.57;2.72;;;;;;;;;;4420314;32;20130;-70
2021/05/24 09:07:10;;;;;;;2.30;2.10;;;;;;;;;;4422215;32;20202;-70
2021/05/24 09:09:36;;;;;;;3.75;2.05;;;;;;;;;;4407249;32;20617;-69
2021/05/24 09:12:04;;;;;;;3.85;2.12;;;;;;;;;;4421711;32;20535;-70
2021/05/24 09:14:30;;;;;;;3.30;2.53;;;;;;;;;;4430207;32;20149;-70
2021/05/24 09:16:56;;;;;;;3.22;2.65;;;;;;;;;;4421939;32;20196;-69
2021/05/24 09:19:22;;;;;;;2.72;2.20;;;;;;;;;;4435187;32;20157;-69
2021/05/24 09:21:58;;;;;;;6.35;2.62;;;;;;;;;;4435658;32;20222;-69
2021/05/24 09:24:34;;;;;;;4.30;2.53;;;;;;;;;;4437075;32;20130;-69
2021/05/24 09:27:00;;;;;;;3.70;2.53;;;;;;;;;;4436820;32;20149;-70
2021/05/24 09:29:26;;;;;;;4.37;2.95;;;;;;;;;;4422764;32;20355;-70
2021/05/24 09:32:11;;;;;;;2.80;2.50;;;;;;;;;;4420713;32;20165;-69
2021/05/24 09:34:36;;;;;;;5.55;2.67;;;;;;;;;;4421439;32;20226;-69
2021/05/24 09:37:02;;;;;;;3.87;2.75;;;;;;;;;;4435657;32;20137;-70
2021/05/24 09:39:31;;;;;;;4.15;2.60;;;;;;;;;;4435945;32;20145;-69
2021/05/24 09:42:00;;;;;;;4.87;3.00;;;;;;;;;;4434718;32;20145;-69
2021/05/24 09:44:26;;;;;;;3.30;2.58;;;;;;;;;;4435850;32;20744;-68
2021/05/24 09:46:52;;;;;;;4.75;3.62;;;;;;;;;;4420700;32;20229;-69
2021/05/24 09:49:21;;;;;;;5.05;2.87;;;;;;;;;;4422375;32;20685;-69
2021/05/24 09:51:46;;;;;;;3.58;2.42;;;;;;;;;;4436615;32;20165;-69
2021/05/24 09:54:13;;;;;;;5.40;2.50;;;;;;;;;;4435251;32;20160;-70
2021/05/24 09:56:40;;;;;;;3.37;2.45;;;;;;;;;;4434758;32;20157;-69
2021/05/24 09:59:08;;;;;;;2.83;2.10;;;;;;;;;;4435788;32;20173;-69
2021/05/24 10:01:36;;;;;;;3.70;1.90;;;;;;;;;;4436354;32;20448;-70
2021/05/24 10:04:02;;;;;;;1.80;1.60;;;;;;;;;;4434983;32;20164;-70
2021/05/24 10:06:27;;;;;;;2.12;1.77;;;;;;;;;;4435187;32;20455;-70
2021/05/24 10:08:55;;;;;;;3.08;1.70;;;;;;;;;;4436013;32;20314;-70
2021/05/24 10:11:21;;;;;;;1.83;1.58;;;;;;;;;;4435817;32;20134;-70
2021/05/24 10:13:47;;;;;;;3.87;1.73;;;;;;;;;;4435040;32;20160;-70
2021/05/24 10:16:17;;;;;;;2.53;1.40;;;;;;;;;;4435043;32;20194;-70
2021/05/24 10:18:42;;;;;;;1.70;1.60;;;;;;;;;;4434234;32;20141;-71
2021/05/24 10:21:08;;;;;;;4.68;1.75;;;;;;;;;;4419579;32;20257;-71
2021/05/24 10:23:33;;;;;;;2.80;1.58;;;;;;;;;;4434423;32;20145;-72
2021/05/24 10:26:00;;;;;;;3.58;1.35;;;;;;;;;;4419283;32;20207;-72
2021/05/24 10:28:26;;;;;;;1.62;1.30;;;;;;;;;;4435075;32;20166;-70
2021/05/24 10:30:52;;;;;;;1.70;1.48;;;;;;;;;;4433755;32;20133;-72
2021/05/24 10:33:18;;;;;;;2.40;1.40;;;;;;;;;;4424945;32;20192;-73
2021/05/24 10:35:44;;;;;;;2.58;1.52;;;;;;;;;;4404097;32;20632;-68
2021/05/24 10:38:27;;;;;;;2.08;1.52;;;;;;;;;;4418331;32;20154;-69
2021/05/24 10:41:01;;;;;;;2.33;1.50;;;;;;;;;;4419854;32;20276;-70
2021/05/24 10:43:37;;;;;;;2.28;1.60;;;;;;;;;;4418563;32;20173;-69
2021/05/24 10:46:22;;;;;;;1.55;1.40;;;;;;;;;;4418736;32;20192;-68
2021/05/24 10:48:53;;;;;;;2.55;1.60;;;;;;;;;;4418338;32;20598;-68
2021/05/24 10:51:18;;;;;;;1.75;1.50;;;;;;;;;;4418183;32;20166;-67
2021/05/24 10:53:43;;;;;;;2.05;1.80;;;;;;;;;;4403039;32;20203;-66
2021/05/24 10:56:21;;;;;;;3.37;1.52;;;;;;;;;;4428460;32;20153;-66
2021/05/24 10:58:47;;;;;;;1.58;1.37;;;;;;;;;;4432459;32;20256;-66
2021/05/24 11:01:12;;;;;;;3.70;1.70;;;;;;;;;;4427733;32;20173;-66
2021/05/24 11:03:43;;;;;;;1.62;1.45;;;;;;;;;;4425071;32;20317;-67
2021/05/24 11:06:13;;;;;;;2.90;1.60;;;;;;;;;;4432706;32;20133;-67
2021/05/24 11:08:41;;;;;;;2.97;1.62;;;;;;;;;;4427175;32;20553;-67
2021/05/24 11:11:16;;;;;;;2.95;1.98;;;;;;;;;;4421911;32;20181;-67
2021/05/24 11:13:50;;;;;;;1.52;1.42;;;;;;;;;;4404691;32;20165;-67
2021/05/24 11:16:15;;;;;;;1.95;1.45;;;;;;;;;;4418233;32;20180;-68
2021/05/24 11:18:41;;;;;;;1.93;1.70;;;;;;;;;;4418135;32;20157;-68
2021/05/24 11:21:16;;;;;;;3.03;2.15;;;;;;;;;;4426992;32;20237;-68
2021/05/24 11:24:04;;;;;;;3.85;2.50;;;;;;;;;;4427682;32;20237;-68
2021/05/24 11:26:33;;;;;;;2.97;1.50;;;;;;;;;;4433685;32;20526;-67
2021/05/24 11:29:06;;;;;;;3.72;1.60;;;;;;;;;;4432762;32;20205;-67
2021/05/24 11:31:37;;;;;;;1.83;1.40;;;;;;;;;;4424410;32;20499;-68
2021/05/24 11:34:03;;;;;;;2.53;1.20;;;;;;;;;;4418175;32;20451;-67
2021/05/24 11:36:28;;;;;;;3.35;1.48;;;;;;;;;;4421959;32;20250;-68
2021/05/24 11:39:07;;;;;;;3.67;1.50;;;;;;;;;;4417668;32;20138;-68
2021/05/24 11:41:33;;;;;;;1.75;1.27;;;;;;;;;;4417647;32;20270;-68
2021/05/24 11:44:01;;;;;;;2.20;1.48;;;;;;;;;;4416997;32;20149;-69
2021/05/24 11:46:40;;;;;;;2.85;1.35;;;;;;;;;;4417580;32;20161;-68
2021/05/24 11:49:05;;;;;;;1.80;1.20;;;;;;;;;;4430648;32;20184;-68
2021/05/24 11:51:34;;;;;;;1.52;1.20;;;;;;;;;;4419785;32;20577;-68
2021/05/24 11:54:13;;;;;;;2.87;1.40;;;;;;;;;;4432905;32;20133;-68
2021/05/24 11:56:46;;;;;;;2.40;1.52;;;;;;;;;;4433328;32;20206;-68
2021/05/24 11:59:18;;;;;;;3.45;1.50;;;;;;;;;;4436853;32;20183;-67
2021/05/24 12:01:44;;;;;;;2.92;1.45;;;;;;;;;;4423698;32;20180;-67
2021/05/24 12:04:12;;;;;;;3.45;2.08;;;;;;;;;;4419867;32;20172;-67
2021/05/24 12:06:51;;;;;;;2.58;1.40;;;;;;;;;;4419262;32;20153;-68
2021/05/24 12:09:35;;;;;;;4.10;1.95;;;;;;;;;;4420100;32;20185;-69
2021/05/24 12:12:01;;;;;;;2.72;2.20;;;;;;;;;;4422477;32;20527;-69
2021/05/24 12:14:26;;;;;;;4.75;2.80;;;;;;;;;;4408902;32;20229;-69
2021/05/24 12:16:53;;;;;;;3.85;2.40;;;;;;;;;;4421020;32;20137;-69
2021/05/24 12:19:20;;;;;;;3.42;3.10;;;;;;;;;;4422254;32;20138;-67
2021/05/24 12:21:45;;;;;;;3.97;1.85;;;;;;;;;;4422610;32;20153;-68
2021/05/24 12:24:11;;;;;;;2.37;2.00;;;;;;;;;;4422447;32;20193;-68
2021/05/24 12:26:37;;;;;;;1.92;1.50;;;;;;;;;;4419914;32;20172;-68
2021/05/24 12:29:03;;;;;;;1.98;1.42;;;;;;;;;;4421337;32;20134;-68
2021/05/24 12:31:31;;;;;;;2.47;1.55;;;;;;;;;;4421578;32;20154;-67
2021/05/24 12:33:57;;;;;;;2.65;1.87;;;;;;;;;;4419518;32;20169;-69
2021/05/24 12:36:23;;;;;;;2.47;1.60;;;;;;;;;;4421753;32;20616;-68
2021/05/24 12:38:53;;;;;;;2.25;2.05;;;;;;;;;;4421131;32;20134;-68
2021/05/24 12:41:19;;;;;;;2.78;2.20;;;;;;;;;;4422060;32;20130;-68
2021/05/24 12:43:48;;;;;;;2.97;2.20;;;;;;;;;;4422437;32;20204;-68
2021/05/24 12:46:13;;;;;;;3.35;1.90;;;;;;;;;;4432967;32;20137;-68
2021/05/24 12:48:39;;;;;;;3.37;2.10;;;;;;;;;;4437954;32;20561;-69
2021/05/24 12:51:12;;;;;;;2.40;2.00;;;;;;;;;;4422953;32;20169;-68
2021/05/24 12:53:37;;;;;;;3.40;2.05;;;;;;;;;;4436811;32;20186;-68
2021/05/24 12:56:07;;;;;;;3.75;2.92;;;;;;;;;;4435469;32;20574;-68
2021/05/24 12:58:36;;;;;;;2.95;2.20;;;;;;;;;;4435523;32;20208;-69
2021/05/24 13:01:02;;;;;;;2.85;2.55;;;;;;;;;;4435321;32;20150;-68
2021/05/24 13:03:48;;;;;;;3.90;1.87;;;;;;;;;;4434603;32;20133;-69
2021/05/24 13:06:14;;;;;;;2.22;1.77;;;;;;;;;;4436230;32;20172;-68
2021/05/24 13:08:46;;;;;;;2.92;1.70;;;;;;;;;;4436526;32;20514;-68
2021/05/24 13:11:11;;;;;;;1.70;1.60;;;;;;;;;;4435349;32;20541;-68
2021/05/24 13:13:36;;;;;;;4.20;3.77;;;;;;;;;;4433780;32;20173;-68
2021/05/24 13:16:16;;;;;;;1.55;1.42;;;;;;;;;;4429078;32;20326;-68
2021/05/24 13:18:58;;;;;;;2.33;1.60;;;;;;;;;;4433547;32;20531;-67
2021/05/24 13:21:53;;;;;;;2.15;1.50;;;;;;;;;;4447682;32;20137;-68
2021/05/24 13:24:44;;;;;;;1.90;1.20;;;;;;;;;;4444885;32;20550;-68
2021/05/24 13:27:35;;;;;;;3.20;1.50;;;;;;;;;;4435664;32;20216;-68
2021/05/24 13:30:07;;;;;;;2.67;1.45;;;;;;;;;;4434326;32;20535;-69
2021/05/24 13:32:32;;;;;;;5.68;2.12;;;;;;;;;;4420134;32;20158;-66
2021/05/24 13:34:57;;;;;;;5.68;2.33;;;;;;;;;;4420914;32;20165;-68
2021/05/24 13:37:23;;;;;;;3.63;1.53;;;;;;;;;;4420624;32;20130;-68
2021/05/24 13:39:58;;;;;;;2.00;1.17;;;;;;;;;;4420019;32;20221;-67
2021/05/24 13:42:25;;;;;;;2.40;1.20;;;;;;;;;;4419938;32;20259;-67
2021/05/24 13:44:50;;;;;;;2.85;1.30;;;;;;;;;;4430295;32;20145;-68
2021/05/24 13:47:18;;;;;;;2.17;1.50;;;;;;;;;;4435859;32;20195;-68
2021/05/24 13:49:43;;;;;;;2.25;1.12;;;;;;;;;;4419986;32;20256;-68
2021/05/24 13:52:08;;;;;;;2.40;0.90;;;;;;;;;;4436169;32;20213;-68
2021/05/24 13:54:34;;;;;;;1.52;1.00;;;;;;;;;;4421090;32;20326;-68
2021/05/24 13:56:59;;;;;;;3.95;1.50;;;;;;;;;;4434385;32;20188;-68
2021/05/24 13:59:24;;;;;;;4.68;1.20;;;;;;;;;;4419213;32;20181;-69
2021/05/24 14:01:49;;;;;;;1.75;0.95;;;;;;;;;;4433633;32;20336;-67
2021/05/24 14:04:16;;;;;;;0.95;0.85;;;;;;;;;;4434044;32;20185;-67
2021/05/24 14:06:41;;;;;;;1.20;0.80;;;;;;;;;;4434911;32;20522;-67
2021/05/24 14:09:06;;;;;;;0.88;0.70;;;;;;;;;;4420582;32;20271;-66
2021/05/24 14:11:32;;;;;;;3.10;0.75;;;;;;;;;;4429192;32;20217;-67
2021/05/24 14:13:57;;;;;;;1.55;0.90;;;;;;;;;;4433902;32;20610;-67
2021/05/24 14:16:22;;;;;;;2.45;0.75;;;;;;;;;;4434300;32;20200;-66
2021/05/24 14:18:49;;;;;;;3.00;0.80;;;;;;;;;;4434254;32;20133;-66
2021/05/24 14:21:15;;;;;;;1.95;0.82;;;;;;;;;;4433824;32;20137;-68
2021/05/24 14:23:41;;;;;;;2.47;0.95;;;;;;;;;;4416143;32;20164;-67
2021/05/24 14:26:06;;;;;;;2.65;1.20;;;;;;;;;;4427249;32;20773;-67
2021/05/24 14:28:32;;;;;;;1.67;0.80;;;;;;;;;;4430945;32;20169;-67
2021/05/24 14:31:06;;;;;;;4.97;1.65;;;;;;;;;;4431557;32;20538;-66
2021/05/24 14:33:32;;;;;;;1.55;0.93;;;;;;;;;;4434460;32;20150;-67
2021/05/24 14:35:58;;;;;;;1.87;0.90;;;;;;;;;;4432012;32;20214;-68
2021/05/24 14:38:23;;;;;;;2.92;1.00;;;;;;;;;;4417553;32;20575;-67
2021/05/24 14:40:48;;;;;;;4.35;1.45;;;;;;;;;;4432181;32;20133;-68